Time;durP1;ratioP1;P1;durP2;ratioP2;P2;SDS_P1;SDS_P2;PMS_P1;PMS_P2;Temp;Humidity;BMP_temperature;BMP_pressure;BME280_temperature;BME280_humidity;BME280_pressure;Samples;Min_cycle;Max_cycle;Signal;HPM_P1;HPM_P2
2022/11/24 00:01:04;;;;;;;0.20;0.20;;;;;;;;;;7390885;19;20140;-65
2022/11/24 00:03:29;;;;;;;0.20;0.20;;;;;;;;;;7392354;19;20198;-65
2022/11/24 00:05:55;;;;;;;0.30;0.30;;;;;;;;;;7392639;19;20134;-65
2022/11/24 00:08:20;;;;;;;0.20;0.20;;;;;;;;;;7392018;19;20121;-65
2022/11/24 00:10:45;;;;;;;0.20;0.20;;;;;;;;;;7391755;19;21091;-65
2022/11/24 00:13:11;;;;;;;0.20;0.20;;;;;;;;;;7385030;19;20125;-65
2022/11/24 00:15:36;;;;;;;0.20;0.20;;;;;;;;;;7387597;19;20121;-65
2022/11/24 00:18:02;;;;;;;0.20;0.20;;;;;;;;;;7387037;19;20610;-65
2022/11/24 00:20:27;;;;;;;0.30;0.30;;;;;;;;;;7386773;19;20174;-65
2022/11/24 00:22:53;;;;;;;0.20;0.20;;;;;;;;;;7393428;19;20123;-65
2022/11/24 00:25:18;;;;;;;0.30;0.30;;;;;;;;;;7390786;19;20121;-65
2022/11/24 00:27:43;;;;;;;0.20;0.20;;;;;;;;;;7391672;19;20752;-65
2022/11/24 00:30:09;;;;;;;0.20;0.20;;;;;;;;;;7391782;19;20153;-65
2022/11/24 00:32:34;;;;;;;0.20;0.20;;;;;;;;;;7392460;19;20149;-65
2022/11/24 00:34:59;;;;;;;0.20;0.20;;;;;;;;;;7392027;19;20125;-65
2022/11/24 00:37:25;;;;;;;0.30;0.30;;;;;;;;;;7390044;19;20180;-65
2022/11/24 00:39:50;;;;;;;0.20;0.20;;;;;;;;;;7392259;19;20153;-65
2022/11/24 00:42:15;;;;;;;0.30;0.30;;;;;;;;;;7390556;19;20467;-65
2022/11/24 00:44:41;;;;;;;0.20;0.20;;;;;;;;;;7388999;19;20125;-65
2022/11/24 00:47:06;;;;;;;0.20;0.20;;;;;;;;;;7388998;19;20133;-65
2022/11/24 00:49:31;;;;;;;0.30;0.30;;;;;;;;;;7390532;19;20173;-65
2022/11/24 00:51:57;;;;;;;0.20;0.20;;;;;;;;;;7392584;19;20131;-65
2022/11/24 00:54:22;;;;;;;0.20;0.20;;;;;;;;;;7390490;19;20483;-65
2022/11/24 00:56:47;;;;;;;0.20;0.20;;;;;;;;;;7387873;19;20140;-64
2022/11/24 00:59:13;;;;;;;0.20;0.20;;;;;;;;;;7391106;19;20208;-64
2022/11/24 01:01:38;;;;;;;0.20;0.20;;;;;;;;;;7388983;19;20623;-65
2022/11/24 01:04:04;;;;;;;0.30;0.30;;;;;;;;;;7392195;19;20124;-65
2022/11/24 01:06:31;;;;;;;0.30;0.30;;;;;;;;;;7388126;19;20216;-65
2022/11/24 01:08:56;;;;;;;0.20;0.20;;;;;;;;;;7389312;19;20152;-64
2022/11/24 01:11:26;;;;;;;0.80;0.80;;;;;;;;;;7389587;19;20121;-65
2022/11/24 01:13:56;;;;;;;0.20;0.20;;;;;;;;;;7389689;19;20125;-65
2022/11/24 01:16:27;;;;;;;0.30;0.30;;;;;;;;;;7389084;19;20205;-64
2022/11/24 01:18:53;;;;;;;0.20;0.20;;;;;;;;;;7388691;19;20502;-65
2022/11/24 01:21:19;;;;;;;0.40;0.40;;;;;;;;;;7389987;19;20209;-65
2022/11/24 01:23:45;;;;;;;0.20;0.20;;;;;;;;;;7388842;19;20148;-65
2022/11/24 01:26:16;;;;;;;0.20;0.20;;;;;;;;;;7387784;19;20121;-65
2022/11/24 01:28:41;;;;;;;0.63;0.63;;;;;;;;;;7388346;19;20117;-65
2022/11/24 01:31:07;;;;;;;0.20;0.20;;;;;;;;;;7389233;19;20584;-65
2022/11/24 01:33:36;;;;;;;0.30;0.30;;;;;;;;;;7389971;19;20184;-65
2022/11/24 01:36:02;;;;;;;0.30;0.30;;;;;;;;;;7387632;19;20124;-65
2022/11/24 01:38:27;;;;;;;0.30;0.30;;;;;;;;;;7390146;19;20152;-65
2022/11/24 01:41:21;;;;;;;0.20;0.20;;;;;;;;;;7387578;19;20136;-65
2022/11/24 01:43:46;;;;;;;0.30;0.30;;;;;;;;;;7387510;19;20160;-65
2022/11/24 01:46:41;;;;;;;0.20;0.20;;;;;;;;;;7385669;19;20134;-65
2022/11/24 01:49:16;;;;;;;0.60;0.60;;;;;;;;;;7386716;19;20175;-65
2022/11/24 01:51:46;;;;;;;0.30;0.30;;;;;;;;;;7388342;19;20163;-64
2022/11/24 01:54:19;;;;;;;0.30;0.30;;;;;;;;;;7388447;19;20474;-65
2022/11/24 01:56:47;;;;;;;0.20;0.20;;;;;;;;;;7385451;19;20125;-65
2022/11/24 01:59:13;;;;;;;0.30;0.30;;;;;;;;;;7389480;19;20148;-65
2022/11/24 02:01:39;;;;;;;0.30;0.30;;;;;;;;;;7386868;19;20117;-65
2022/11/24 02:04:07;;;;;;;0.23;0.23;;;;;;;;;;7386641;19;20643;-65
2022/11/24 02:06:34;;;;;;;0.20;0.20;;;;;;;;;;7384331;19;20212;-65
2022/11/24 02:09:07;;;;;;;0.30;0.30;;;;;;;;;;7386186;19;20167;-65
2022/11/24 02:11:37;;;;;;;0.40;0.40;;;;;;;;;;7387409;19;20120;-65
2022/11/24 02:14:04;;;;;;;0.20;0.20;;;;;;;;;;7386818;19;20132;-63
2022/11/24 02:16:31;;;;;;;0.30;0.30;;;;;;;;;;7386324;19;20129;-64
2022/11/24 02:18:56;;;;;;;0.20;0.20;;;;;;;;;;7386562;19;20168;-65
2022/11/24 02:21:21;;;;;;;0.20;0.20;;;;;;;;;;7385919;19;20121;-65
2022/11/24 02:23:58;;;;;;;0.20;0.20;;;;;;;;;;7387710;19;20141;-65
2022/11/24 02:26:37;;;;;;;0.30;0.30;;;;;;;;;;7385932;19;20148;-65
2022/11/24 02:29:03;;;;;;;0.20;0.20;;;;;;;;;;7386915;19;20529;-65
2022/11/24 02:31:28;;;;;;;0.20;0.20;;;;;;;;;;7387386;19;20114;-65
2022/11/24 02:33:54;;;;;;;0.50;0.50;;;;;;;;;;7389296;19;20121;-64
2022/11/24 02:36:19;;;;;;;0.50;0.50;;;;;;;;;;7386542;19;20128;-65
2022/11/24 02:38:45;;;;;;;0.30;0.30;;;;;;;;;;7387630;19;20201;-65
2022/11/24 02:41:13;;;;;;;0.30;0.30;;;;;;;;;;7389793;19;20117;-65
2022/11/24 02:43:42;;;;;;;0.30;0.30;;;;;;;;;;7386316;19;20125;-65
2022/11/24 02:46:09;;;;;;;0.30;0.30;;;;;;;;;;7387787;19;20125;-65
2022/11/24 02:48:35;;;;;;;0.40;0.40;;;;;;;;;;7386384;19;20557;-64
2022/11/24 02:51:00;;;;;;;0.40;0.40;;;;;;;;;;7386882;19;20154;-65
2022/11/24 02:53:26;;;;;;;0.27;0.27;;;;;;;;;;7388305;19;20125;-65
2022/11/24 02:55:51;;;;;;;0.20;0.20;;;;;;;;;;7387607;19;20456;-65
2022/11/24 02:58:17;;;;;;;0.30;0.30;;;;;;;;;;7387918;19;20117;-66
2022/11/24 03:00:42;;;;;;;0.30;0.30;;;;;;;;;;7386064;19;20665;-65
2022/11/24 03:03:07;;;;;;;0.20;0.20;;;;;;;;;;7388936;19;20125;-64
2022/11/24 03:05:33;;;;;;;0.37;0.37;;;;;;;;;;7388686;19;20259;-65
2022/11/24 15:06:22;;;;;;;0.20;0.20;;;;;;;;;;7385670;19;20192;-65
2022/11/24 15:08:48;;;;;;;0.30;0.30;;;;;;;;;;7385205;19;20149;-66
2022/11/24 15:11:13;;;;;;;0.20;0.20;;;;;;;;;;7390514;19;20144;-66
2022/11/24 15:13:39;;;;;;;0.30;0.30;;;;;;;;;;7386522;19;20113;-65
2022/11/24 15:16:14;;;;;;;0.30;0.30;;;;;;;;;;7389225;19;20173;-65
2022/11/24 15:18:46;;;;;;;0.30;0.30;;;;;;;;;;7389087;19;20210;-65
2022/11/24 15:21:12;;;;;;;0.37;0.37;;;;;;;;;;7386129;19;20141;-65
2022/11/24 15:23:40;;;;;;;0.40;0.40;;;;;;;;;;7389716;19;20145;-65
2022/11/24 15:26:06;;;;;;;0.30;0.30;;;;;;;;;;7390649;19;20144;-64
2022/11/24 15:28:32;;;;;;;0.27;0.27;;;;;;;;;;7385017;19;20507;-66
2022/11/24 15:31:01;;;;;;;0.20;0.20;;;;;;;;;;7388011;19;20125;-64
2022/11/24 15:33:28;;;;;;;0.30;0.30;;;;;;;;;;7387448;19;20629;-64
2022/11/24 15:35:53;;;;;;;0.20;0.20;;;;;;;;;;7384292;19;20121;-65
2022/11/24 15:38:19;;;;;;;0.30;0.30;;;;;;;;;;7386315;19;20594;-64
2022/11/24 15:40:45;;;;;;;0.20;0.20;;;;;;;;;;7374600;19;20145;-64
2022/11/24 15:43:20;;;;;;;0.77;0.53;;;;;;;;;;7382056;19;20117;-65
2022/11/24 15:45:45;;;;;;;0.20;0.20;;;;;;;;;;7386359;19;20128;-65
2022/11/24 15:48:10;;;;;;;0.20;0.20;;;;;;;;;;7387194;19;20140;-64
2022/11/24 15:50:36;;;;;;;0.30;0.30;;;;;;;;;;7381256;19;20141;-63
2022/11/24 15:53:05;;;;;;;0.30;0.30;;;;;;;;;;7389030;19;20340;-64
2022/11/24 15:55:31;;;;;;;0.20;0.20;;;;;;;;;;7374258;19;20558;-64
2022/11/24 15:57:56;;;;;;;0.30;0.30;;;;;;;;;;7375250;19;20608;-64
2022/11/24 16:00:22;;;;;;;0.30;0.30;;;;;;;;;;7381177;19;20180;-64
2022/11/24 16:02:47;;;;;;;0.20;0.20;;;;;;;;;;7379808;19;20162;-64
2022/11/24 16:05:14;;;;;;;0.20;0.20;;;;;;;;;;7381217;19;20121;-64
2022/11/24 16:07:39;;;;;;;0.30;0.30;;;;;;;;;;7384468;19;21726;-65
2022/11/24 16:10:07;;;;;;;0.20;0.20;;;;;;;;;;7374928;19;20667;-65
2022/11/24 16:12:32;;;;;;;0.30;0.30;;;;;;;;;;7385855;19;20148;-66
2022/11/24 16:14:58;;;;;;;0.30;0.30;;;;;;;;;;7376293;19;20546;-65
2022/11/24 16:17:23;;;;;;;0.20;0.20;;;;;;;;;;7377039;19;20389;-63
2022/11/24 16:19:48;;;;;;;0.30;0.30;;;;;;;;;;7382666;19;20157;-65
2022/11/24 16:22:13;;;;;;;0.20;0.20;;;;;;;;;;7387426;19;20144;-64
2022/11/24 16:24:39;;;;;;;0.20;0.20;;;;;;;;;;7388943;19;20476;-64
2022/11/24 16:27:04;;;;;;;0.30;0.30;;;;;;;;;;7385029;19;20129;-64
2022/11/24 16:29:29;;;;;;;0.30;0.30;;;;;;;;;;7388025;19;20145;-64
2022/11/24 16:31:56;;;;;;;0.20;0.20;;;;;;;;;;7385443;19;20117;-64
2022/11/24 16:34:21;;;;;;;0.20;0.20;;;;;;;;;;7384431;19;20137;-64
2022/11/24 16:36:47;;;;;;;0.20;0.20;;;;;;;;;;7388984;19;20130;-64
2022/11/24 16:39:12;;;;;;;0.30;0.30;;;;;;;;;;7375980;19;20549;-64
2022/11/24 16:41:37;;;;;;;0.23;0.23;;;;;;;;;;7376451;19;20777;-64
2022/11/24 16:44:03;;;;;;;0.30;0.30;;;;;;;;;;7390260;19;20188;-64
2022/11/24 16:46:28;;;;;;;0.30;0.30;;;;;;;;;;7384522;19;20144;-64
2022/11/24 16:48:58;;;;;;;0.20;0.20;;;;;;;;;;7370597;19;20177;-64
2022/11/24 16:51:24;;;;;;;0.30;0.30;;;;;;;;;;7384037;19;20583;-64
2022/11/24 16:53:57;;;;;;;0.30;0.30;;;;;;;;;;7381537;19;20134;-64
2022/11/24 16:56:22;;;;;;;0.20;0.20;;;;;;;;;;7364725;19;20600;-64
2022/11/24 16:58:47;;;;;;;0.20;0.20;;;;;;;;;;7366209;19;20141;-64
2022/11/24 17:01:13;;;;;;;0.20;0.20;;;;;;;;;;7375169;19;20794;-64
2022/11/24 17:03:38;;;;;;;0.20;0.20;;;;;;;;;;7383869;19;20123;-64
2022/11/24 17:06:07;;;;;;;0.20;0.20;;;;;;;;;;7387769;19;20618;-64
2022/11/24 17:08:33;;;;;;;0.20;0.20;;;;;;;;;;7385114;19;20148;-65
2022/11/24 17:11:19;;;;;;;0.20;0.20;;;;;;;;;;7380100;19;20148;-64
2022/11/24 17:13:46;;;;;;;0.30;0.30;;;;;;;;;;7385193;19;20121;-65
2022/11/24 17:16:13;;;;;;;0.20;0.20;;;;;;;;;;7388707;19;20148;-65
2022/11/24 17:18:39;;;;;;;0.30;0.30;;;;;;;;;;7387794;19;20125;-64
2022/11/24 17:21:06;;;;;;;0.20;0.20;;;;;;;;;;7383209;19;20143;-66
2022/11/24 17:23:31;;;;;;;0.33;0.33;;;;;;;;;;7388026;19;20136;-65
2022/11/24 17:26:04;;;;;;;0.30;0.30;;;;;;;;;;7378489;19;20125;-65
2022/11/24 17:28:29;;;;;;;0.30;0.30;;;;;;;;;;7388131;19;20172;-65
2022/11/24 17:30:55;;;;;;;0.20;0.20;;;;;;;;;;7362959;19;20149;-65
2022/11/24 17:33:20;;;;;;;0.30;0.30;;;;;;;;;;7374231;19;20233;-63
2022/11/24 17:35:46;;;;;;;0.20;0.20;;;;;;;;;;7381237;19;20132;-64
2022/11/24 17:38:11;;;;;;;0.30;0.30;;;;;;;;;;7389342;19;20113;-64
2022/11/24 17:40:36;;;;;;;0.30;0.30;;;;;;;;;;7378180;19;20179;-63
2022/11/24 17:43:01;;;;;;;0.30;0.30;;;;;;;;;;7383669;19;20128;-64
2022/11/24 17:45:29;;;;;;;0.30;0.30;;;;;;;;;;7390595;19;20125;-63
2022/11/24 17:47:57;;;;;;;0.30;0.30;;;;;;;;;;7374617;19;20192;-64
2022/11/24 17:50:23;;;;;;;0.40;0.40;;;;;;;;;;7382571;19;20152;-64
2022/11/24 17:52:48;;;;;;;0.30;0.30;;;;;;;;;;7386010;19;20229;-64
2022/11/24 17:55:13;;;;;;;0.20;0.20;;;;;;;;;;7387644;19;20130;-64
2022/11/24 17:57:39;;;;;;;0.30;0.30;;;;;;;;;;7388574;19;20566;-64
2022/11/24 18:00:04;;;;;;;0.30;0.30;;;;;;;;;;7385116;19;20262;-65
2022/11/24 18:02:30;;;;;;;0.20;0.20;;;;;;;;;;7387753;19;20136;-64
2022/11/24 18:04:55;;;;;;;0.20;0.20;;;;;;;;;;7384546;19;20132;-64
2022/11/24 18:07:20;;;;;;;0.37;0.37;;;;;;;;;;7380002;19;20133;-64
2022/11/24 18:09:46;;;;;;;0.30;0.30;;;;;;;;;;7382273;19;20157;-63
2022/11/24 18:12:11;;;;;;;0.43;0.43;;;;;;;;;;7387241;19;20117;-64
2022/11/24 18:14:36;;;;;;;0.20;0.20;;;;;;;;;;7385956;19;20493;-64
2022/11/24 18:17:02;;;;;;;0.30;0.30;;;;;;;;;;7376873;19;20756;-64
2022/11/24 18:19:27;;;;;;;0.30;0.30;;;;;;;;;;7373256;19;20584;-63
2022/11/24 18:21:52;;;;;;;0.40;0.40;;;;;;;;;;7376265;19;20613;-64
2022/11/24 18:24:17;;;;;;;0.20;0.20;;;;;;;;;;7377453;19;20120;-64
2022/11/24 18:26:43;;;;;;;0.20;0.20;;;;;;;;;;7372319;19;20117;-66
2022/11/24 18:29:09;;;;;;;0.30;0.30;;;;;;;;;;7381795;19;20144;-65
2022/11/24 18:31:34;;;;;;;0.23;0.23;;;;;;;;;;7373607;19;20129;-65
2022/11/24 18:34:01;;;;;;;0.30;0.30;;;;;;;;;;7369974;19;20144;-65
2022/11/24 18:36:27;;;;;;;0.30;0.30;;;;;;;;;;7372589;19;20446;-65
2022/11/24 18:38:52;;;;;;;0.40;0.40;;;;;;;;;;7383597;19;20137;-65
2022/11/24 18:41:17;;;;;;;0.30;0.30;;;;;;;;;;7382354;19;20117;-65
2022/11/24 18:43:43;;;;;;;0.20;0.20;;;;;;;;;;7391953;19;20118;-65
2022/11/24 18:46:14;;;;;;;0.30;0.30;;;;;;;;;;7381236;19;20171;-65
2022/11/24 18:48:39;;;;;;;0.30;0.30;;;;;;;;;;7389784;19;20437;-65
2022/11/24 18:51:07;;;;;;;0.53;0.53;;;;;;;;;;7380131;19;20177;-66
2022/11/24 18:53:32;;;;;;;0.30;0.30;;;;;;;;;;7382750;19;20117;-65
2022/11/24 18:56:02;;;;;;;0.20;0.20;;;;;;;;;;7374461;19;20132;-65
2022/11/24 18:58:29;;;;;;;0.47;0.47;;;;;;;;;;7378217;19;20125;-65
2022/11/24 19:01:06;;;;;;;0.53;0.53;;;;;;;;;;7380986;19;20532;-65
2022/11/24 19:03:31;;;;;;;0.37;0.37;;;;;;;;;;7383272;19;20121;-65
2022/11/24 19:06:01;;;;;;;0.40;0.40;;;;;;;;;;7372608;19;20153;-65
2022/11/24 19:08:26;;;;;;;0.23;0.23;;;;;;;;;;7379533;19;20129;-65
2022/11/24 19:10:51;;;;;;;0.20;0.20;;;;;;;;;;7386230;19;20121;-66
2022/11/24 19:13:16;;;;;;;0.37;0.37;;;;;;;;;;7376658;19;20122;-65
2022/11/24 19:15:42;;;;;;;0.57;0.57;;;;;;;;;;7384671;19;20129;-65
2022/11/24 19:18:07;;;;;;;0.40;0.40;;;;;;;;;;7379460;19;20133;-65
2022/11/24 19:20:33;;;;;;;0.20;0.20;;;;;;;;;;7382567;19;20149;-65
2022/11/24 19:22:58;;;;;;;0.47;0.47;;;;;;;;;;7385968;19;20136;-66
2022/11/24 19:25:24;;;;;;;0.57;0.57;;;;;;;;;;7378715;19;20113;-65
2022/11/24 19:27:49;;;;;;;0.40;0.40;;;;;;;;;;7362226;19;20485;-65
2022/11/24 19:30:15;;;;;;;0.40;0.40;;;;;;;;;;7367820;19;20557;-65
2022/11/24 19:32:41;;;;;;;0.83;0.83;;;;;;;;;;7375387;19;20125;-65
2022/11/24 19:35:06;;;;;;;0.27;0.27;;;;;;;;;;7374131;19;20607;-65
2022/11/24 19:37:32;;;;;;;0.20;0.20;;;;;;;;;;7389448;19;20117;-65
2022/11/24 19:39:57;;;;;;;0.37;0.37;;;;;;;;;;7389124;19;20164;-65
2022/11/24 19:42:22;;;;;;;0.40;0.40;;;;;;;;;;7388839;19;20128;-65
2022/11/24 19:44:48;;;;;;;0.50;0.50;;;;;;;;;;7390424;19;20133;-65
2022/11/24 19:47:13;;;;;;;0.30;0.30;;;;;;;;;;7389934;19;20121;-66
2022/11/24 19:49:38;;;;;;;0.53;0.53;;;;;;;;;;7388680;19;20233;-66
2022/11/24 19:52:03;;;;;;;0.20;0.20;;;;;;;;;;7385475;19;20121;-65
2022/11/24 19:54:29;;;;;;;6.47;0.57;;;;;;;;;;7389415;19;20500;-66
2022/11/24 19:56:55;;;;;;;0.40;0.40;;;;;;;;;;7388732;19;20125;-65
2022/11/24 19:59:22;;;;;;;0.20;0.20;;;;;;;;;;7386561;19;20149;-65
2022/11/24 20:01:48;;;;;;;0.20;0.20;;;;;;;;;;7392977;19;20125;-65
2022/11/24 20:04:14;;;;;;;0.20;0.20;;;;;;;;;;7390900;19;20188;-66
2022/11/24 20:06:42;;;;;;;0.30;0.30;;;;;;;;;;7391603;19;20117;-66
2022/11/24 20:09:09;;;;;;;0.20;0.20;;;;;;;;;;7390234;19;20157;-65
2022/11/24 20:11:35;;;;;;;0.50;0.50;;;;;;;;;;7389486;19;20140;-66
2022/11/24 20:14:01;;;;;;;0.63;0.63;;;;;;;;;;7390322;19;20598;-66
2022/11/24 20:16:28;;;;;;;0.20;0.20;;;;;;;;;;7390712;19;20113;-65
2022/11/24 20:18:56;;;;;;;0.30;0.30;;;;;;;;;;7390023;19;20511;-66
2022/11/24 20:21:24;;;;;;;0.30;0.30;;;;;;;;;;7380653;19;20571;-65
2022/11/24 20:24:17;;;;;;;0.30;0.30;;;;;;;;;;7378062;19;20121;-66
2022/11/24 20:26:48;;;;;;;0.20;0.20;;;;;;;;;;7378302;19;20204;-65
2022/11/24 20:29:14;;;;;;;0.40;0.40;;;;;;;;;;7380696;19;20622;-65
2022/11/24 20:31:42;;;;;;;0.20;0.20;;;;;;;;;;7384496;19;20583;-66
2022/11/24 20:34:08;;;;;;;0.30;0.30;;;;;;;;;;7382831;19;20121;-65
2022/11/24 20:36:35;;;;;;;0.20;0.20;;;;;;;;;;7386482;19;20149;-65
2022/11/24 20:39:04;;;;;;;0.20;0.20;;;;;;;;;;7387948;19;20167;-65
2022/11/24 20:41:32;;;;;;;0.23;0.23;;;;;;;;;;7386225;19;20192;-65
2022/11/24 20:44:00;;;;;;;0.30;0.30;;;;;;;;;;7387420;19;20121;-66
2022/11/24 20:46:28;;;;;;;0.30;0.30;;;;;;;;;;7364532;19;20184;-65
2022/11/24 20:48:54;;;;;;;0.20;0.20;;;;;;;;;;7384742;19;20182;-66
2022/11/24 20:51:25;;;;;;;0.30;0.30;;;;;;;;;;7386441;19;20461;-66
2022/11/24 20:53:55;;;;;;;0.27;0.27;;;;;;;;;;7386080;19;20127;-65
2022/11/24 20:56:23;;;;;;;0.30;0.30;;;;;;;;;;7387424;19;20605;-65
2022/11/24 20:58:49;;;;;;;0.20;0.20;;;;;;;;;;7384623;19;20145;-65
2022/11/24 21:01:23;;;;;;;0.30;0.30;;;;;;;;;;7378760;19;20117;-65
2022/11/24 21:03:53;;;;;;;0.40;0.40;;;;;;;;;;7380696;19;20645;-65
2022/11/24 21:06:18;;;;;;;0.30;0.30;;;;;;;;;;7386407;19;20121;-65
2022/11/24 21:08:44;;;;;;;0.30;0.30;;;;;;;;;;7386170;19;20139;-65
2022/11/24 21:11:11;;;;;;;0.30;0.30;;;;;;;;;;7380001;19;20469;-65
2022/11/24 21:13:37;;;;;;;0.30;0.30;;;;;;;;;;7381628;19;20512;-65
2022/11/24 21:16:14;;;;;;;0.30;0.30;;;;;;;;;;7383920;19;20208;-65
2022/11/24 21:18:39;;;;;;;0.20;0.20;;;;;;;;;;7379797;19;20124;-65
2022/11/24 21:21:05;;;;;;;0.30;0.30;;;;;;;;;;7383470;19;20116;-65
2022/11/24 21:23:31;;;;;;;0.20;0.20;;;;;;;;;;7385240;19;20844;-66
2022/11/24 21:26:00;;;;;;;0.30;0.30;;;;;;;;;;7380442;19;20477;-65
2022/11/24 21:28:25;;;;;;;0.30;0.30;;;;;;;;;;7382397;19;20109;-66
2022/11/24 21:30:50;;;;;;;0.30;0.30;;;;;;;;;;7379778;19;20145;-65
2022/11/24 21:33:16;;;;;;;0.40;0.40;;;;;;;;;;7369852;19;20125;-65
2022/11/24 21:35:41;;;;;;;0.30;0.30;;;;;;;;;;7385059;19;20140;-65
2022/11/24 21:38:07;;;;;;;0.30;0.30;;;;;;;;;;7376475;19;20200;-65
2022/11/24 21:40:32;;;;;;;0.30;0.30;;;;;;;;;;7367008;19;20156;-65
2022/11/24 21:42:58;;;;;;;0.30;0.30;;;;;;;;;;7381224;19;20125;-65
2022/11/24 21:45:24;;;;;;;0.20;0.20;;;;;;;;;;7386795;19;20128;-66
2022/11/24 21:47:49;;;;;;;0.30;0.30;;;;;;;;;;7386350;19;20152;-66
2022/11/24 21:50:14;;;;;;;0.20;0.20;;;;;;;;;;7379039;19;20156;-65
2022/11/24 21:52:40;;;;;;;1.40;0.60;;;;;;;;;;7381826;19;20116;-66
2022/11/24 21:55:05;;;;;;;0.30;0.30;;;;;;;;;;7372357;19;20148;-66
2022/11/24 21:57:31;;;;;;;0.30;0.30;;;;;;;;;;7368144;19;20146;-66
2022/11/24 21:59:56;;;;;;;0.30;0.30;;;;;;;;;;7371354;19;20155;-65
2022/11/24 22:02:21;;;;;;;0.30;0.30;;;;;;;;;;7377862;19;20132;-66
2022/11/24 22:04:47;;;;;;;0.30;0.30;;;;;;;;;;7379889;19;20132;-65
2022/11/24 22:07:12;;;;;;;0.30;0.30;;;;;;;;;;7370913;19;20575;-66
2022/11/24 22:09:37;;;;;;;0.30;0.30;;;;;;;;;;7369529;19;20164;-64
2022/11/24 22:12:03;;;;;;;0.30;0.30;;;;;;;;;;7375622;19;20128;-65
2022/11/24 22:14:28;;;;;;;0.30;0.30;;;;;;;;;;7365365;19;20885;-66
2022/11/24 22:16:53;;;;;;;0.20;0.20;;;;;;;;;;7366747;19;20128;-65
2022/11/24 22:19:19;;;;;;;0.30;0.30;;;;;;;;;;7373348;19;20159;-66
2022/11/24 22:21:44;;;;;;;0.20;0.20;;;;;;;;;;7370985;19;20117;-66
2022/11/24 22:24:09;;;;;;;0.20;0.20;;;;;;;;;;7375397;19;20248;-66
2022/11/24 22:26:35;;;;;;;0.20;0.20;;;;;;;;;;7372537;19;21124;-66
2022/11/24 22:29:00;;;;;;;0.30;0.30;;;;;;;;;;7368990;19;20204;-66
2022/11/24 22:31:27;;;;;;;0.30;0.30;;;;;;;;;;7372837;19;20129;-66
2022/11/24 22:33:54;;;;;;;0.20;0.20;;;;;;;;;;7367547;19;20136;-66
2022/11/24 22:36:21;;;;;;;0.20;0.20;;;;;;;;;;7365142;19;20499;-65
2022/11/24 22:38:48;;;;;;;0.30;0.30;;;;;;;;;;7350459;19;20190;-65
2022/11/24 22:41:15;;;;;;;0.40;0.40;;;;;;;;;;7365026;19;20129;-66
2022/11/24 22:43:41;;;;;;;0.20;0.20;;;;;;;;;;7369070;19;20132;-65
2022/11/24 22:46:09;;;;;;;0.30;0.30;;;;;;;;;;7364334;19;20121;-66
2022/11/24 22:48:35;;;;;;;0.23;0.23;;;;;;;;;;7371828;19;20167;-66
2022/11/24 22:51:02;;;;;;;0.53;0.53;;;;;;;;;;7378261;19;20129;-66
2022/11/24 22:53:27;;;;;;;0.20;0.20;;;;;;;;;;7382951;19;20212;-65
2022/11/24 22:55:53;;;;;;;0.30;0.30;;;;;;;;;;7383003;19;20520;-66
2022/11/24 22:58:18;;;;;;;0.87;0.87;;;;;;;;;;7380646;19;20200;-65
2022/11/24 23:00:43;;;;;;;0.30;0.30;;;;;;;;;;7383368;19;20176;-65
2022/11/24 23:03:09;;;;;;;0.30;0.30;;;;;;;;;;7382717;19;20121;-66
2022/11/24 23:05:34;;;;;;;0.20;0.20;;;;;;;;;;7382645;19;21467;-65
2022/11/24 23:07:59;;;;;;;0.20;0.20;;;;;;;;;;7382784;19;20129;-66
2022/11/24 23:10:24;;;;;;;0.60;0.60;;;;;;;;;;7381311;19;20183;-67
2022/11/24 23:12:50;;;;;;;0.30;0.30;;;;;;;;;;7384419;19;20133;-65
2022/11/24 23:15:16;;;;;;;0.20;0.20;;;;;;;;;;7382554;19;20117;-66
2022/11/24 23:17:41;;;;;;;0.23;0.23;;;;;;;;;;7380129;19;20121;-65
2022/11/24 23:20:07;;;;;;;1.30;0.50;;;;;;;;;;7379901;19;20153;-65
2022/11/24 23:22:32;;;;;;;0.20;0.20;;;;;;;;;;7380493;19;20638;-65
2022/11/24 23:24:57;;;;;;;0.23;0.23;;;;;;;;;;7384240;19;20125;-65
2022/11/24 23:27:23;;;;;;;0.20;0.20;;;;;;;;;;7390282;19;20148;-65
2022/11/24 23:29:48;;;;;;;0.30;0.30;;;;;;;;;;7382348;19;20145;-65
2022/11/24 23:32:13;;;;;;;0.20;0.20;;;;;;;;;;7386439;19;20132;-65
2022/11/24 23:34:39;;;;;;;0.50;0.50;;;;;;;;;;7386522;19;20193;-65
2022/11/24 23:37:04;;;;;;;0.20;0.20;;;;;;;;;;7387657;19;20454;-65
2022/11/24 23:39:29;;;;;;;0.20;0.20;;;;;;;;;;7390047;19;20149;-65
2022/11/24 23:41:54;;;;;;;0.20;0.20;;;;;;;;;;7391555;19;20125;-65
2022/11/24 23:44:20;;;;;;;0.30;0.30;;;;;;;;;;7386607;19;20472;-65
2022/11/24 23:46:46;;;;;;;0.30;0.30;;;;;;;;;;7389457;19;20193;-65
2022/11/24 23:49:12;;;;;;;0.30;0.30;;;;;;;;;;7387684;19;20177;-65
2022/11/24 23:51:40;;;;;;;0.33;0.33;;;;;;;;;;7384868;19;20135;-65
2022/11/24 23:54:07;;;;;;;0.23;0.23;;;;;;;;;;7390789;19;20141;-65
2022/11/24 23:56:32;;;;;;;0.50;0.50;;;;;;;;;;7387009;19;20125;-65
2022/11/24 23:58:59;;;;;;;0.20;0.20;;;;;;;;;;7385772;19;20144;-65
